Catawba, VA (24070)

7:48 AM EDT on September 01, 2014 (GMT -0400)
Lost Mountain SW | Change Station
CLOSE
Current Station
Personal Weather Station
Location: Roanoke, VA
Elevation: 1827 ft
Nearby Weather Stations

Elev 1827 ft 37.21 °N, 80.10 °W | Updated 10 minutes ago

Mostly Cloudy
Mostly Cloudy
77.0 °F
Feels Like 79 °F
N
12.1
Wind Variable Wind from North
Gusts 12.1 mph

Today
High -- | Low -- °F
--% Chance of Precip.
Yesterday
High -- | Low -- °F
Precip. -- in
6:51 AM 7:49 PM
Waxing Crescent, 40% visible
Pressure 30.09 in
Visibility 10.0 miles
Clouds Mostly Cloudy 7000 ft
Mostly Cloudy 25000 ft
Heat Index 79 °F
Dew Point 67 °F
Humidity 72%
Rainfall 0.00 in
Snow Depth Not available.
UV 0 out of 12
Pollen 10.30 out of 12
PM2.5 Good
Flu Activity Not available.
METAR KROA 011054Z 27004KT 10SM BKN070 BKN250 23/20 A3012 RMK AO2 SLP187 T02330200

More Conditions Fewer Conditions

Pressure 30.09 in
Visibility 10.0 miles
Clouds Mostly Cloudy 7000 ft
Mostly Cloudy 25000 ft
Heat Index 79 °F
Dew Point 67 °F
Humidity 72%
Rainfall 0.00 in
Snow Depth Not available.
UV 0 out of 12
Pollen 10.30 out of 12
PM2.5 Good
Flu Activity Not available.
METAR KROA 011054Z 27004KT 10SM BKN070 BKN250 23/20 A3012 RMK AO2 SLP187 T02330200

More Conditions Fewer Conditions

10-Day Weather Forecast

Almanac

Astronomy

Sep. 01, 2014 Rise Set
Actual Time 6:51 AM EDT 7:49 PM EDT
Civil Twilight 6:24 AM EDT 8:16 PM EDT
Nautical Twilight 5:52 AM EDT 8:47 PM EDT
Astronomical Twilight 5:19 AM EDT 9:20 PM EDT
Moon 1:26 PM EDT 11:58 PM EDT
Length of Visible Light 13h 51m
Length of Day
12h 58m
Tomorrow will be 2m 17s shorter.
Waxing Crescent, 40% of the Moon is Illuminated
Today
Waxing Crescent
Sep 2
First Quarter
Sep 8
Full
Sep 15
Last Quarter
Sep 24
New

Today's Extremes

State Highs State Lows

Community

WunderPhotos

Upload Photos

1,749,192 photos uploaded!

Nearby

Air Quality

  Air Quality AQ Index Pollutant
Yesterday Good
PM2.5
Yesterday Good
OZONE
Current Good
PM2.5
Monday Moderate
PM2.5
Monday Good
OZONE
Tuesday Moderate
PM2.5
Tuesday Good
OZONE

Snow Depth

Station Depth Elevation
No new snow has been reported.

Earthquake Activity

City Distance Mag. Time & Date
No recent earthquake activity has been reported nearby.
Minimum magnitude displayed is 2.5.

Coastal Water Temperatures

Place Temperature
No Stations Reporting

Nearby Weather Stations